Station History

Weather Underground - logo

Station Historical Data
Daily Summary for January 1, 2018 Units:  English    Metric   Both
« Previous Day
Next Day »
Daily Weekly Monthly Yearly Custom
  High: Low: Average:
Temperature: 62.8 °F 36.1 °F 47.6 °F
Dew Point: 47.0 °F 33.2 °F 40.8 °F
Humidity: 92 % 54 % 78 %
Wind Speed: 5.8 mph 0.0 mph 0.5 mph
Wind Gust: 5.8 mph - -
Wind:- - WSW
Pressure: 30.30 in 30.16 in -
Precipitation: 0.00 in    
Historical Graphs
 
 
Tabular Data for January 1, 2018
Time Temperature Dew Point Pressure Wind Wind Speed Wind Gust Humidity Rainfall Rate (Hourly)
00:00 40.1 °F 37.1 °F 30.19 in Calm     89 % 0.00 in
00:05 40.0 °F 36.7 °F 30.19 in Calm     88 % 0.00 in
00:06 40.0 °F 36.7 °F 30.19 in Calm     88 % 0.00 in
00:11 40.0 °F 36.7 °F 30.19 in Calm     88 % 0.00 in
00:13 40.0 °F 36.7 °F 30.19 in Calm     88 % 0.00 in
00:18 39.9 °F 36.6 °F 30.19 in Calm     88 % 0.00 in
00:19 39.8 °F 36.5 °F 30.19 in Calm     88 % 0.00 in
00:22 39.8 °F 36.8 °F 30.19 in Calm     89 % 0.00 in
00:27 39.7 °F 36.7 °F 30.19 in Calm     89 % 0.00 in
00:31 39.7 °F 36.4 °F 30.19 in Calm     88 % 0.00 in
00:36 39.5 °F 36.2 °F 30.19 in Calm     88 % 0.00 in
00:39 39.3 °F 36.0 °F 30.19 in Calm     88 % 0.00 in
00:44 39.2 °F 35.9 °F 30.19 in Calm     88 % 0.00 in
00:47 39.2 °F 35.9 °F 30.19 in Calm     88 % 0.00 in
00:54 39.0 °F 36.0 °F 30.19 in Calm     89 % 0.00 in
00:59 39.2 °F 36.2 °F 30.19 in Calm     89 % 0.00 in
01:00 39.2 °F 36.2 °F 30.19 in Calm     89 % 0.00 in
01:01 39.3 °F 36.3 °F 30.19 in Calm     89 % 0.00 in
01:05 39.5 °F 36.5 °F 30.19 in Calm     89 % 0.00 in
01:10 40.0 °F 36.7 °F 30.19 in Calm     88 % 0.00 in
01:12 40.1 °F 36.5 °F 30.19 in Calm     87 % 0.00 in
01:17 40.5 °F 36.9 °F 30.19 in North 1.2 mph   87 % 0.00 in
01:24 40.6 °F 36.7 °F 30.19 in Calm     86 % 0.00 in
01:27 40.5 °F 36.6 °F 30.19 in Calm     86 % 0.00 in
01:32 40.3 °F 36.4 °F 30.19 in Calm     86 % 0.00 in
01:38 40.1 °F 36.2 °F 30.19 in Calm     86 % 0.00 in
01:39 40.1 °F 36.2 °F 30.19 in Calm     86 % 0.00 in
01:41 40.1 °F 36.2 °F 30.19 in Calm     86 % 0.00 in
01:46 39.9 °F 36.3 °F 30.19 in Calm     87 % 0.00 in
01:51 39.6 °F 36.0 °F 30.19 in Calm     87 % 0.00 in
01:56 39.4 °F 35.9 °F 30.19 in Calm     87 % 0.00 in
02:01 39.1 °F 35.8 °F 30.19 in Calm     88 % 0.00 in
02:06 39.1 °F 36.1 °F 30.19 in Calm     89 % 0.00 in
02:07 39.1 °F 36.1 °F 30.19 in Calm     89 % 0.00 in
02:12 39.1 °F 36.1 °F 30.19 in Calm     89 % 0.00 in
02:13 39.1 °F 36.1 °F 30.19 in Calm     89 % 0.00 in
02:15 39.1 °F 36.1 °F 30.19 in Calm     89 % 0.00 in
02:20 39.1 °F 35.8 °F 30.19 in Calm     88 % 0.00 in
02:25 38.8 °F 35.3 °F 30.19 in Calm     87 % 0.00 in
02:26 38.7 °F 35.2 °F 30.19 in Calm     87 % 0.00 in
02:27 38.7 °F 35.2 °F 30.19 in Calm     87 % 0.00 in
02:32 38.3 °F 35.1 °F 30.20 in Calm     88 % 0.00 in
02:37 37.9 °F 34.7 °F 30.20 in Calm     88 % 0.00 in
02:42 37.8 °F 34.8 °F 30.20 in Calm     89 % 0.00 in
02:44 37.7 °F 34.8 °F 30.20 in Calm     89 % 0.00 in
02:49 37.6 °F 34.7 °F 30.20 in Calm     89 % 0.00 in
02:52 37.6 °F 34.7 °F 30.20 in Calm     89 % 0.00 in
02:53 37.5 °F 34.6 °F 30.20 in Calm     89 % 0.00 in
02:58 37.5 °F 34.6 °F 30.20 in Calm     89 % 0.00 in
02:59 37.4 °F 34.5 °F 30.20 in Calm     89 % 0.00 in
03:04 37.2 °F 34.3 °F 30.20 in Calm     89 % 0.00 in
03:05 37.2 °F 34.3 °F 30.20 in Calm     89 % 0.00 in
03:07 37.1 °F 34.2 °F 30.21 in Calm     89 % 0.00 in
03:10 37.0 °F 34.1 °F 30.21 in Calm     89 % 0.00 in
03:15 37.0 °F 34.3 °F 30.20 in Calm     90 % 0.00 in
03:17 37.1 °F 34.4 °F 30.20 in Calm     90 % 0.00 in
03:18 37.3 °F 34.6 °F 30.20 in Calm     90 % 0.00 in
03:24 37.5 °F 34.8 °F 30.20 in Calm     90 % 0.00 in
03:26 37.5 °F 34.6 °F 30.20 in Calm     89 % 0.00 in
03:30 37.4 °F 34.7 °F 30.21 in Calm     90 % 0.00 in
03:33 37.5 °F 34.8 °F 30.21 in Calm     90 % 0.00 in
03:38 37.5 °F 34.8 °F 30.22 in Calm     90 % 0.00 in
03:40 37.5 °F 34.8 °F 30.22 in Calm     90 % 0.00 in
03:45 37.4 °F 34.5 °F 30.21 in Calm     89 % 0.00 in
03:46 37.4 °F 34.5 °F 30.21 in Calm     89 % 0.00 in
03:49 37.5 °F 34.6 °F 30.22 in Calm     89 % 0.00 in
03:52 37.6 °F 34.7 °F 30.21 in Calm     89 % 0.00 in
03:57 37.5 °F 34.3 °F 30.21 in Calm     88 % 0.00 in
04:00 37.5 °F 34.3 °F 30.21 in Calm     88 % 0.00 in
04:05 37.6 °F 34.4 °F 30.22 in Calm     88 % 0.00 in
04:07 37.5 °F 34.3 °F 30.21 in Calm     88 % 0.00 in
04:12 37.1 °F 33.6 °F 30.22 in Calm     87 % 0.00 in
04:16 36.9 °F 33.7 °F 30.22 in Calm     88 % 0.00 in
04:19 36.9 °F 34.0 °F 30.22 in Calm     89 % 0.00 in
04:22 36.8 °F 33.9 °F 30.22 in Calm     89 % 0.00 in
04:26 36.8 °F 34.1 °F 30.22 in Calm     90 % 0.00 in
04:27 36.8 °F 34.1 °F 30.22 in Calm     90 % 0.00 in
04:32 36.9 °F 34.2 °F 30.22 in Calm     90 % 0.00 in
04:33 36.9 °F 34.2 °F 30.22 in Calm     90 % 0.00 in
04:38 36.8 °F 34.1 °F 30.22 in Calm     90 % 0.00 in
04:41 36.8 °F 34.1 °F 30.22 in Calm     90 % 0.00 in
04:42 36.8 °F 34.1 °F 30.22 in Calm     90 % 0.00 in
04:47 36.9 °F 34.5 °F 30.22 in Calm     91 % 0.00 in
04:48 36.9 °F 34.5 °F 30.22 in Calm     91 % 0.00 in
04:49 36.9 °F 34.5 °F 30.22 in Calm     91 % 0.00 in
04:54 37.0 °F 34.6 °F 30.22 in Calm     91 % 0.00 in
04:59 37.0 °F 34.3 °F 30.22 in Calm     90 % 0.00 in
05:04 36.9 °F 34.2 °F 30.22 in Calm     90 % 0.00 in
05:06 36.9 °F 34.2 °F 30.22 in Calm     90 % 0.00 in
05:11 36.7 °F 34.0 °F 30.22 in Calm     90 % 0.00 in
05:13 36.7 °F 34.0 °F 30.22 in Calm     90 % 0.00 in
05:18 36.6 °F 34.2 °F 30.22 in Calm     91 % 0.00 in
05:21 36.7 °F 34.0 °F 30.22 in Calm     90 % 0.00 in
05:23 36.6 °F 33.9 °F 30.22 in Calm     90 % 0.00 in
05:28 36.4 °F 33.5 °F 30.22 in Calm     89 % 0.00 in
05:33 36.5 °F 33.8 °F 30.22 in Calm     90 % 0.00 in
05:38 36.5 °F 33.6 °F 30.22 in Calm     89 % 0.00 in
05:40 36.4 °F 33.5 °F 30.22 in Calm     89 % 0.00 in
05:44 36.5 °F 33.6 °F 30.23 in Calm     89 % 0.00 in
05:46 36.5 °F 33.8 °F 30.23 in Calm     90 % 0.00 in
05:51 36.6 °F 33.9 °F 30.23 in Calm     90 % 0.00 in
05:52 36.6 °F 33.9 °F 30.23 in Calm     90 % 0.00 in
05:57 36.3 °F 33.4 °F 30.23 in Calm     89 % 0.00 in
06:02 36.1 °F 33.2 °F 30.23 in Calm     89 % 0.00 in
06:07 36.1 °F 33.5 °F 30.24 in Calm     90 % 0.00 in
06:11 36.1 °F 33.5 °F 30.24 in Calm     90 % 0.00 in
06:16 36.3 °F 33.6 °F 30.24 in Calm     90 % 0.00 in
06:19 36.5 °F 34.1 °F 30.24 in North 1.2 mph 1.2 mph 91 % 0.00 in
06:24 36.8 °F 34.1 °F 30.25 in North 1.2 mph 1.2 mph 90 % 0.00 in
06:25 36.9 °F 34.2 °F 30.25 in Calm   0.2 mph 90 % 0.00 in
06:29 37.1 °F 34.4 °F 30.25 in North 1.2 mph   90 % 0.00 in
06:34 37.2 °F 34.5 °F 30.25 in North 2.3 mph 2.3 mph 90 % 0.00 in
06:39 37.1 °F 34.2 °F 30.25 in North 1.2 mph 1.2 mph 89 % 0.00 in
06:40 37.1 °F 34.2 °F 30.25 in North 1.2 mph 1.2 mph 89 % 0.00 in
06:42 36.9 °F 34.0 °F 30.25 in North 2.3 mph 2.3 mph 89 % 0.00 in
06:44 36.7 °F 33.8 °F 30.25 in North 1.2 mph 1.2 mph 89 % 0.00 in
06:49 36.4 °F 33.5 °F 30.25 in Calm     89 % 0.00 in
06:54 36.3 °F 33.6 °F 30.25 in North 2.3 mph 2.3 mph 90 % 0.00 in
06:59 36.3 °F 33.6 °F 30.25 in Calm   0.2 mph 90 % 0.00 in
07:00 36.3 °F 33.6 °F 30.25 in North 1.2 mph   90 % 0.00 in
07:05 36.5 °F 34.1 °F 30.25 in North 1.2 mph 1.2 mph 91 % 0.00 in
07:10 36.7 °F 34.3 °F 30.25 in Calm     91 % 0.00 in
07:12 36.8 °F 34.4 °F 30.25 in North 1.2 mph   91 % 0.00 in
07:17 36.9 °F 34.5 °F 30.25 in Calm     91 % 0.00 in
07:22 36.9 °F 34.2 °F 30.25 in Calm     90 % 0.00 in
07:23 36.9 °F 34.2 °F 30.25 in Calm     90 % 0.00 in
07:25 36.9 °F 34.2 °F 30.25 in Calm     90 % 0.00 in
07:28 36.8 °F 34.1 °F 30.25 in Calm     90 % 0.00 in
07:33 36.8 °F 34.4 °F 30.25 in Calm     91 % 0.00 in
07:35 36.9 °F 34.5 °F 30.25 in Calm     91 % 0.00 in
07:41 37.4 °F 35.3 °F 30.25 in Calm     92 % 0.00 in
07:43 37.7 °F 35.6 °F 30.25 in Calm     92 % 0.00 in
07:48 38.3 °F 36.2 °F 30.25 in Calm     92 % 0.00 in
07:49 38.4 °F 36.0 °F 30.25 in Calm     91 % 0.00 in
07:52 38.6 °F 36.2 °F 30.25 in Calm     91 % 0.00 in
07:54 38.8 °F 36.4 °F 30.25 in Calm     91 % 0.00 in
07:59 39.4 °F 36.7 °F 30.26 in Calm     90 % 0.00 in
08:03 39.9 °F 36.9 °F 30.26 in Calm     89 % 0.00 in
08:08 40.6 °F 37.0 °F 30.26 in Calm     87 % 0.00 in
08:09 40.7 °F 37.1 °F 30.26 in Calm     87 % 0.00 in
08:14 41.2 °F 37.6 °F 30.26 in Calm     87 % 0.00 in
08:19 41.7 °F 37.8 °F 30.26 in Calm     86 % 0.00 in
08:24 42.4 °F 38.5 °F 30.26 in Calm     86 % 0.00 in
08:25 42.6 °F 38.7 °F 30.26 in Calm     86 % 0.00 in
08:26 42.8 °F 38.9 °F 30.26 in Calm     86 % 0.00 in
08:29 43.2 °F 39.3 °F 30.26 in Calm     86 % 0.00 in
08:32 43.5 °F 39.6 °F 30.27 in Calm     86 % 0.00 in
08:36 44.2 °F 39.7 °F 30.27 in SSE 1.2 mph 1.2 mph 84 % 0.00 in
08:37 44.3 °F 39.8 °F 30.27 in SSE 1.2 mph 1.2 mph 84 % 0.00 in
08:38 44.4 °F 39.9 °F 30.27 in Calm     84 % 0.00 in
08:43 44.7 °F 39.5 °F 30.27 in SSE 1.2 mph 1.2 mph 82 % 0.00 in
08:44 44.7 °F 39.5 °F 30.27 in SE 2.3 mph 2.3 mph 82 % 0.00 in
08:49 44.8 °F 39.0 °F 30.27 in South 1.2 mph 1.2 mph 80 % 0.00 in
08:54 44.8 °F 39.3 °F 30.27 in Calm     81 % 0.00 in
08:57 44.9 °F 39.1 °F 30.27 in Calm     80 % 0.00 in
08:58 44.9 °F 39.1 °F 30.27 in SSE 3.5 mph 3.5 mph 80 % 0.00 in
09:03 45.1 °F 39.0 °F 30.27 in SSE 2.3 mph 2.3 mph 79 % 0.00 in
09:04 45.2 °F 38.7 °F 30.27 in SSE 2.3 mph 2.3 mph 78 % 0.00 in
09:09 45.6 °F 38.8 °F 30.28 in SE 5.8 mph 5.8 mph 77 % 0.00 in
09:10 45.7 °F 38.9 °F 30.28 in ESE 3.5 mph 3.5 mph 77 % 0.00 in
09:15 46.0 °F 39.2 °F 30.28 in SSE 3.5 mph 3.5 mph 77 % 0.00 in
09:18 46.1 °F 39.3 °F 30.28 in SSE 3.5 mph 3.5 mph 77 % 0.00 in
09:22 46.4 °F 39.9 °F 30.28 in SW 2.3 mph 2.3 mph 78 % 0.00 in
09:26 46.9 °F 40.4 °F 30.29 in ESE 3.5 mph 3.5 mph 78 % 0.00 in
09:31 47.5 °F 41.0 °F 30.29 in SSE 3.5 mph 3.5 mph 78 % 0.00 in
09:33 47.7 °F 41.2 °F 30.29 in SE 3.5 mph 3.5 mph 78 % 0.00 in
09:38 48.3 °F 41.8 °F 30.30 in SSW 3.0 mph 3.0 mph 78 % 0.00 in
09:39 48.3 °F 41.8 °F 30.30 in SE 3.5 mph 3.5 mph 78 % 0.00 in
09:44 48.6 °F 41.7 °F 30.30 in South 4.0 mph 4.0 mph 77 % 0.00 in
09:49 48.8 °F 41.9 °F 30.30 in South 2.3 mph 2.3 mph 77 % 0.00 in
09:50 48.8 °F 41.9 °F 30.30 in South 1.2 mph 1.2 mph 77 % 0.00 in
09:55 49.2 °F 42.3 °F 30.30 in SSW 2.3 mph 2.3 mph 77 % 0.00 in
09:56 49.2 °F 42.3 °F 30.30 in NE 2.3 mph 2.3 mph 77 % 0.00 in
10:01 49.4 °F 42.1 °F 30.30 in ESE 1.2 mph 1.2 mph 76 % 0.00 in
10:06 49.7 °F 42.4 °F 30.30 in Calm     76 % 0.00 in
10:07 49.8 °F 42.5 °F 30.30 in South 1.2 mph 1.2 mph 76 % 0.00 in
10:12 50.3 °F 42.7 °F 30.30 in SSE 1.2 mph 1.2 mph 75 % 0.00 in
10:14 50.5 °F 42.5 °F 30.30 in NE 1.2 mph 1.2 mph 74 % 0.00 in
10:19 51.1 °F 43.1 °F 30.29 in SE 1.2 mph 1.2 mph 74 % 0.00 in
10:20 51.2 °F 43.5 °F 30.29 in SSW 1.2 mph 1.2 mph 75 % 0.00 in
10:23 51.6 °F 43.6 °F 30.29 in ESE 1.0 mph 1.0 mph 74 % 0.00 in
10:28 52.3 °F 43.9 °F 30.29 in SSE 1.2 mph 1.2 mph 73 % 0.00 in
10:30 52.5 °F 43.7 °F 30.29 in ESE 1.2 mph 1.2 mph 72 % 0.00 in
10:31 52.7 °F 43.9 °F 30.29 in SSE 2.3 mph 2.3 mph 72 % 0.00 in
10:35 53.2 °F 44.0 °F 30.29 in SSE 1.2 mph 1.2 mph 71 % 0.00 in
10:40 53.5 °F 44.0 °F 30.29 in SE 1.2 mph 1.2 mph 70 % 0.00 in
10:41 53.5 °F 44.0 °F 30.29 in SE 2.3 mph 2.3 mph 70 % 0.00 in
10:42 53.6 °F 44.0 °F 30.28 in NE 1.2 mph 1.2 mph 70 % 0.00 in
10:47 54.0 °F 44.1 °F 30.28 in South 1.2 mph   69 % 0.00 in
10:50 54.4 °F 44.4 °F 30.28 in East 1.2 mph 1.2 mph 69 % 0.00 in
10:54 54.8 °F 44.8 °F 30.28 in South 1.0 mph   69 % 0.00 in
10:59 55.3 °F 44.5 °F 30.28 in SSE 2.3 mph 2.3 mph 67 % 0.00 in
11:01 55.5 °F 44.3 °F 30.28 in SE 1.0 mph 1.0 mph 66 % 0.00 in
11:03 55.7 °F 44.9 °F 30.28 in SE 1.2 mph 1.2 mph 67 % 0.00 in
11:07 56.0 °F 44.4 °F 30.27 in Calm   0.1 mph 65 % 0.00 in
11:12 56.1 °F 44.5 °F 30.27 in WNW 1.2 mph   65 % 0.00 in
11:13 56.1 °F 44.5 °F 30.27 in Calm     65 % 0.00 in
11:18 56.4 °F 45.2 °F 30.27 in NNW 1.2 mph 1.2 mph 66 % 0.00 in
11:20 56.5 °F 44.9 °F 30.27 in WNW 1.2 mph 1.2 mph 65 % 0.00 in
11:21 56.5 °F 44.9 °F 30.26 in West 1.2 mph 1.2 mph 65 % 0.00 in
11:26 56.2 °F 45.0 °F 30.26 in West 2.3 mph 2.3 mph 66 % 0.00 in
11:31 56.4 °F 45.2 °F 30.26 in Calm     66 % 0.00 in
11:32 56.5 °F 45.7 °F 30.26 in NNW 1.2 mph 1.2 mph 67 % 0.00 in
11:37 56.7 °F 45.1 °F 30.25 in NW 1.2 mph 1.2 mph 65 % 0.00 in
11:42 57.0 °F 45.3 °F 30.25 in WNW 2.3 mph 2.3 mph 65 % 0.00 in
11:43 57.0 °F 45.3 °F 30.25 in WSW 2.3 mph 2.3 mph 65 % 0.00 in
11:45 57.1 °F 45.8 °F 30.25 in WNW 1.2 mph 1.2 mph 66 % 0.00 in
11:49 57.4 °F 45.7 °F 30.25 in NNW 1.2 mph 1.2 mph 65 % 0.00 in
11:54 57.6 °F 45.5 °F 30.25 in West 1.2 mph 1.2 mph 64 % 0.00 in
11:55 57.6 °F 45.5 °F 30.25 in WNW 1.2 mph   64 % 0.00 in
11:56 57.6 °F 45.9 °F 30.25 in WNW 1.0 mph   65 % 0.00 in
12:01 57.5 °F 45.4 °F 30.24 in WNW 1.2 mph 1.2 mph 64 % 0.00 in
12:02 57.5 °F 45.4 °F 30.24 in NW 2.3 mph 2.3 mph 64 % 0.00 in
12:06 57.6 °F 45.5 °F 30.24 in SSW 1.0 mph   64 % 0.00 in
12:09 58.0 °F 46.3 °F 30.23 in SSE 1.2 mph 1.2 mph 65 % 0.00 in
12:11 58.2 °F 46.1 °F 30.23 in Calm     64 % 0.00 in
12:15 58.3 °F 45.3 °F 30.23 in Calm     62 % 0.00 in
12:16 58.4 °F 46.3 °F 30.23 in Calm     64 % 0.00 in
12:21 58.7 °F 45.7 °F 30.22 in WNW 1.2 mph 1.2 mph 62 % 0.00 in
12:24 58.5 °F 45.9 °F 30.22 in WNW 1.2 mph   63 % 0.00 in
12:26 58.5 °F 46.4 °F 30.22 in Calm     64 % 0.00 in
12:30 58.6 °F 45.6 °F 30.21 in WNW 1.2 mph 1.2 mph 62 % 0.00 in
12:33 58.7 °F 45.7 °F 30.21 in Calm     62 % 0.00 in
12:36 58.8 °F 45.8 °F 30.21 in Calm     62 % 0.00 in
12:40 59.2 °F 45.8 °F 30.21 in Calm     61 % 0.00 in
12:45 59.7 °F 45.8 °F 30.20 in West 1.2 mph 1.2 mph 60 % 0.00 in
12:50 59.8 °F 45.9 °F 30.20 in WNW 1.2 mph 1.2 mph 60 % 0.00 in
12:52 59.9 °F 45.5 °F 30.20 in NW 1.2 mph 1.2 mph 59 % 0.00 in
12:58 60.3 °F 46.4 °F 30.20 in Calm   0.5 mph 60 % 0.00 in
13:00 60.3 °F 46.4 °F 30.20 in WNW 1.2 mph   60 % 0.00 in
13:01 60.3 °F 45.9 °F 30.19 in Calm     59 % 0.00 in
13:06 60.5 °F 46.5 °F 30.19 in Calm     60 % 0.00 in
13:07 60.5 °F 46.5 °F 30.19 in Calm     60 % 0.00 in
13:12 61.1 °F 46.7 °F 30.19 in WNW 2.3 mph 2.3 mph 59 % 0.00 in
13:13 61.2 °F 46.8 °F 30.19 in Calm     59 % 0.00 in
13:18 61.2 °F 46.3 °F 30.18 in NW 1.2 mph   58 % 0.00 in
13:20 61.3 °F 46.4 °F 30.18 in WSW 1.2 mph   58 % 0.00 in
13:22 61.3 °F 46.4 °F 30.18 in WNW 1.2 mph 1.2 mph 58 % 0.00 in
13:27 61.5 °F 46.1 °F 30.18 in Calm     57 % 0.00 in
13:32 61.7 °F 46.8 °F 30.18 in NW 2.3 mph 2.3 mph 58 % 0.00 in
13:34 61.7 °F 46.3 °F 30.18 in West 2.3 mph 2.3 mph 57 % 0.00 in
13:39 61.6 °F 46.2 °F 30.17 in WNW 1.2 mph 1.2 mph 57 % 0.00 in
13:40 61.6 °F 46.2 °F 30.17 in WNW 1.2 mph   57 % 0.00 in
13:41 61.7 °F 46.3 °F 30.17 in WNW 1.2 mph 1.2 mph 57 % 0.00 in
13:46 61.8 °F 46.4 °F 30.17 in WNW 1.2 mph 1.2 mph 57 % 0.00 in
13:48 61.8 °F 46.4 °F 30.17 in WNW 1.0 mph 1.0 mph 57 % 0.00 in
13:52 61.8 °F 46.4 °F 30.17 in WNW 1.2 mph 1.2 mph 57 % 0.00 in
13:53 62.0 °F 46.6 °F 30.17 in WNW 1.2 mph 1.2 mph 57 % 0.00 in
13:58 62.1 °F 46.2 °F 30.17 in NW 1.2 mph 1.2 mph 56 % 0.00 in
14:02 62.1 °F 46.2 °F 30.17 in Calm     56 % 0.00 in
14:05 62.2 °F 46.3 °F 30.17 in NW 1.2 mph 1.2 mph 56 % 0.00 in
14:09 62.3 °F 46.9 °F 30.17 in NNW 1.2 mph 1.2 mph 57 % 0.00 in
14:10 62.4 °F 47.0 °F 30.17 in NW 2.3 mph 2.3 mph 57 % 0.00 in
14:15 62.5 °F 46.6 °F 30.17 in NNE 1.2 mph 1.2 mph 56 % 0.00 in
14:17 62.5 °F 46.6 °F 30.17 in WNW 1.2 mph   56 % 0.00 in
14:22 62.6 °F 46.2 °F 30.17 in WNW 2.3 mph 2.3 mph 55 % 0.00 in
14:27 62.6 °F 46.2 °F 30.17 in West 1.2 mph 1.2 mph 55 % 0.00 in
14:29 62.7 °F 46.3 °F 30.17 in NW 1.2 mph 1.2 mph 55 % 0.00 in
14:34 62.8 °F 45.9 °F 30.17 in Calm     54 % 0.00 in
14:36 62.7 °F 45.8 °F 30.17 in Calm   0.2 mph 54 % 0.00 in
14:40 62.7 °F 46.3 °F 30.17 in NW 1.2 mph 1.2 mph 55 % 0.00 in
14:45 62.6 °F 46.7 °F 30.17 in WNW 1.0 mph 1.0 mph 56 % 0.00 in
14:46 62.6 °F 46.7 °F 30.17 in NW 1.2 mph 1.2 mph 56 % 0.00 in
14:50 62.6 °F 46.2 °F 30.17 in NW 1.2 mph   55 % 0.00 in
14:55 62.7 °F 46.3 °F 30.17 in Calm     55 % 0.00 in
15:00 62.5 °F 45.6 °F 30.17 in Calm   0.2 mph 54 % 0.00 in
15:01 62.5 °F 46.1 °F 30.17 in NW 1.2 mph 1.2 mph 55 % 0.00 in
15:06 62.3 °F 45.4 °F 30.18 in Calm     54 % 0.00 in
15:07 62.3 °F 45.4 °F 30.18 in Calm     54 % 0.00 in
15:11 62.2 °F 45.8 °F 30.18 in WNW 1.0 mph 1.0 mph 55 % 0.00 in
15:13 62.2 °F 45.3 °F 30.18 in WNW 1.2 mph 1.2 mph 54 % 0.00 in
15:18 62.1 °F 45.2 °F 30.18 in Calm     54 % 0.00 in
15:21 62.0 °F 45.2 °F 30.17 in WNW 1.2 mph 1.2 mph 54 % 0.00 in
15:24 61.8 °F 45.0 °F 30.17 in WNW 1.2 mph 1.2 mph 54 % 0.00 in
15:28 61.6 °F 45.3 °F 30.17 in Calm     55 % 0.00 in
15:31 61.5 °F 45.2 °F 30.17 in Calm     55 % 0.00 in
15:35 61.3 °F 45.5 °F 30.17 in Calm     56 % 0.00 in
15:37 61.1 °F 45.3 °F 30.17 in Calm     56 % 0.00 in
15:42 60.9 °F 45.6 °F 30.17 in Calm     57 % 0.00 in
15:47 60.7 °F 45.8 °F 30.17 in Calm     58 % 0.00 in
15:48 60.6 °F 45.7 °F 30.17 in Calm     58 % 0.00 in
15:53 60.2 °F 45.8 °F 30.17 in Calm     59 % 0.00 in
15:58 59.9 °F 46.0 °F 30.17 in Calm     60 % 0.00 in
16:00 59.8 °F 45.9 °F 30.17 in Calm     60 % 0.00 in
16:02 59.6 °F 46.1 °F 30.17 in Calm     61 % 0.00 in
16:06 59.5 °F 46.0 °F 30.17 in Calm     61 % 0.00 in
16:11 59.3 °F 46.3 °F 30.17 in WNW 1.2 mph 1.2 mph 62 % 0.00 in
16:12 59.3 °F 46.3 °F 30.17 in WNW 1.0 mph   62 % 0.00 in
16:17 59.3 °F 46.3 °F 30.17 in WNW 1.2 mph 1.2 mph 62 % 0.00 in
16:20 59.3 °F 46.3 °F 30.17 in Calm     62 % 0.00 in
16:22 59.2 °F 46.2 °F 30.16 in Calm     62 % 0.00 in
16:27 59.0 °F 46.4 °F 30.16 in Calm     63 % 0.00 in
16:29 58.9 °F 46.3 °F 30.16 in Calm     63 % 0.00 in
16:34 58.7 °F 46.5 °F 30.17 in Calm     64 % 0.00 in
16:39 58.3 °F 46.2 °F 30.17 in Calm     64 % 0.00 in
16:40 58.3 °F 46.2 °F 30.17 in Calm     64 % 0.00 in
16:44 58.0 °F 46.3 °F 30.17 in Calm     65 % 0.00 in
16:46 57.8 °F 46.1 °F 30.17 in Calm     65 % 0.00 in
16:49 57.4 °F 46.1 °F 30.17 in Calm     66 % 0.00 in
16:52 57.1 °F 45.8 °F 30.17 in Calm     66 % 0.00 in
16:57 56.6 °F 46.2 °F 30.17 in Calm     68 % 0.00 in
17:02 56.0 °F 45.6 °F 30.17 in Calm     68 % 0.00 in
17:03 56.0 °F 45.6 °F 30.17 in Calm     68 % 0.00 in
17:08 55.4 °F 45.8 °F 30.17 in Calm     70 % 0.00 in
17:14 54.7 °F 45.5 °F 30.17 in Calm     71 % 0.00 in
17:16 54.4 °F 46.3 °F 30.17 in Calm     74 % 0.00 in
17:20 54.3 °F 46.2 °F 30.17 in Calm     74 % 0.00 in
17:23 54.2 °F 45.7 °F 30.18 in Calm     73 % 0.00 in
17:25 54.2 °F 46.1 °F 30.18 in Calm     74 % 0.00 in
17:30 54.0 °F 45.5 °F 30.18 in Calm     73 % 0.00 in
17:31 54.0 °F 45.9 °F 30.18 in Calm     74 % 0.00 in
17:37 53.6 °F 45.5 °F 30.18 in Calm     74 % 0.00 in
17:42 53.5 °F 45.8 °F 30.18 in Calm     75 % 0.00 in
17:45 53.3 °F 45.6 °F 30.19 in Calm     75 % 0.00 in
17:50 53.0 °F 45.6 °F 30.19 in Calm     76 % 0.00 in
17:53 52.8 °F 45.4 °F 30.19 in Calm     76 % 0.00 in
17:56 52.5 °F 45.2 °F 30.19 in Calm     76 % 0.00 in
17:58 52.4 °F 45.1 °F 30.19 in Calm     76 % 0.00 in
18:03 52.2 °F 45.2 °F 30.19 in Calm     77 % 0.00 in
18:08 51.9 °F 45.3 °F 30.19 in Calm     78 % 0.00 in
18:09 51.8 °F 45.2 °F 30.19 in Calm     78 % 0.00 in
18:14 51.8 °F 45.2 °F 30.19 in Calm     78 % 0.00 in
18:19 51.6 °F 45.0 °F 30.20 in Calm     78 % 0.00 in
18:24 51.5 °F 44.9 °F 30.20 in Calm     78 % 0.00 in
18:25 51.5 °F 44.9 °F 30.20 in Calm     78 % 0.00 in
18:30 51.2 °F 44.6 °F 30.20 in Calm     78 % 0.00 in
18:35 50.9 °F 44.6 °F 30.20 in Calm     79 % 0.00 in
18:41 50.8 °F 44.5 °F 30.20 in Calm     79 % 0.00 in
18:46 50.7 °F 44.4 °F 30.20 in Calm     79 % 0.00 in
18:47 50.6 °F 44.3 °F 30.20 in Calm     79 % 0.00 in
18:52 50.4 °F 44.5 °F 30.20 in Calm     80 % 0.00 in
18:53 50.3 °F 44.4 °F 30.20 in Calm     80 % 0.00 in
18:58 50.1 °F 44.5 °F 30.21 in Calm     81 % 0.00 in
18:59 50.1 °F 44.5 °F 30.20 in Calm     81 % 0.00 in
19:04 49.9 °F 44.3 °F 30.21 in Calm     81 % 0.00 in
19:09 49.6 °F 44.3 °F 30.20 in Calm     82 % 0.00 in
19:13 49.4 °F 44.1 °F 30.21 in Calm     82 % 0.00 in
19:19 49.0 °F 43.7 °F 30.20 in Calm     82 % 0.00 in
19:20 48.9 °F 43.6 °F 30.20 in Calm     82 % 0.00 in
19:25 48.6 °F 43.7 °F 30.20 in Calm     83 % 0.00 in
19:29 48.3 °F 43.4 °F 30.20 in Calm     83 % 0.00 in
19:34 48.4 °F 44.1 °F 30.21 in Calm     85 % 0.00 in
19:35 48.4 °F 44.1 °F 30.21 in Calm     85 % 0.00 in
19:40 48.5 °F 43.9 °F 30.21 in Calm     84 % 0.00 in
19:45 48.2 °F 43.3 °F 30.21 in Calm     83 % 0.00 in
19:50 47.6 °F 42.7 °F 30.21 in Calm     83 % 0.00 in
19:51 47.5 °F 42.9 °F 30.21 in Calm     84 % 0.00 in
19:56 47.3 °F 43.0 °F 30.21 in Calm     85 % 0.00 in
19:59 47.1 °F 42.8 °F 30.21 in Calm     85 % 0.00 in
20:04 46.9 °F 42.9 °F 30.21 in Calm     86 % 0.00 in
20:06 47.0 °F 43.0 °F 30.21 in Calm     86 % 0.00 in
20:11 47.5 °F 43.2 °F 30.21 in Calm     85 % 0.00 in
20:13 47.6 °F 43.3 °F 30.21 in Calm     85 % 0.00 in
20:18 48.2 °F 43.6 °F 30.21 in Calm     84 % 0.00 in
20:21 48.4 °F 43.5 °F 30.21 in Calm     83 % 0.00 in
20:24 48.3 °F 43.4 °F 30.21 in Calm     83 % 0.00 in
20:29 48.3 °F 43.1 °F 30.21 in Calm     82 % 0.00 in
20:32 48.2 °F 43.0 °F 30.21 in Calm     82 % 0.00 in
20:37 47.9 °F 42.7 °F 30.21 in Calm     82 % 0.00 in
20:41 47.5 °F 42.6 °F 30.21 in Calm     83 % 0.00 in
20:46 47.1 °F 42.2 °F 30.21 in Calm     83 % 0.00 in
20:47 47.1 °F 42.2 °F 30.21 in Calm     83 % 0.00 in
20:48 47.0 °F 42.4 °F 30.21 in Calm     84 % 0.00 in
20:53 46.6 °F 42.0 °F 30.21 in Calm     84 % 0.00 in
20:55 46.5 °F 41.9 °F 30.21 in Calm     84 % 0.00 in
20:59 46.1 °F 41.5 °F 30.22 in Calm     84 % 0.00 in
21:04 45.6 °F 41.0 °F 30.22 in Calm     84 % 0.00 in
21:09 45.2 °F 41.0 °F 30.22 in Calm     85 % 0.00 in
21:11 45.1 °F 41.2 °F 30.22 in Calm     86 % 0.00 in
21:14 44.9 °F 41.0 °F 30.22 in Calm     86 % 0.00 in
21:16 44.7 °F 40.5 °F 30.22 in Calm     85 % 0.00 in
21:21 44.3 °F 40.4 °F 30.22 in Calm     86 % 0.00 in
21:30 44.1 °F 40.8 °F 30.22 in Calm     88 % 0.00 in
21:35 44.1 °F 40.5 °F 30.22 in Calm     87 % 0.00 in
21:36 44.1 °F 40.5 °F 30.22 in Calm     87 % 0.00 in
21:37 44.1 °F 40.8 °F 30.22 in Calm     88 % 0.00 in
21:42 44.2 °F 40.9 °F 30.22 in Calm     88 % 0.00 in
21:47 44.4 °F 41.4 °F 30.23 in Calm     89 % 0.00 in
21:48 44.4 °F 41.4 °F 30.23 in Calm     89 % 0.00 in
21:49 44.4 °F 41.4 °F 30.22 in Calm     89 % 0.00 in
21:53 44.4 °F 41.4 °F 30.22 in Calm     89 % 0.00 in
21:58 44.5 °F 41.5 °F 30.23 in Calm     89 % 0.00 in
22:03 44.9 °F 41.9 °F 30.23 in Calm     89 % 0.00 in
22:04 44.9 °F 41.9 °F 30.22 in Calm     89 % 0.00 in
22:06 44.9 °F 41.9 °F 30.23 in Calm     89 % 0.00 in
22:09 45.0 °F 41.7 °F 30.23 in Calm     88 % 0.00 in
22:13 45.0 °F 42.0 °F 30.22 in Calm     89 % 0.00 in
22:17 45.1 °F 41.8 °F 30.22 in Calm     88 % 0.00 in
22:22 45.2 °F 41.9 °F 30.23 in Calm     88 % 0.00 in
22:27 45.3 °F 42.0 °F 30.22 in Calm     88 % 0.00 in
22:28 45.3 °F 42.0 °F 30.22 in Calm     88 % 0.00 in
22:33 45.3 °F 41.7 °F 30.22 in Calm     87 % 0.00 in
22:36 45.3 °F 42.0 °F 30.22 in Calm     88 % 0.00 in
22:39 45.4 °F 42.1 °F 30.22 in Calm     88 % 0.00 in
22:41 45.5 °F 41.9 °F 30.22 in Calm     87 % 0.00 in
22:45 45.5 °F 41.9 °F 30.22 in Calm     87 % 0.00 in
22:48 45.3 °F 41.4 °F 30.22 in Calm     86 % 0.00 in
22:53 44.8 °F 41.2 °F 30.22 in Calm     87 % 0.00 in
22:58 45.0 °F 41.4 °F 30.22 in WNW 1.2 mph   87 % 0.00 in
22:59 44.9 °F 41.3 °F 30.22 in Calm     87 % 0.00 in
23:04 44.6 °F 41.0 °F 30.22 in Calm     87 % 0.00 in
23:09 44.5 °F 40.9 °F 30.22 in Calm     87 % 0.00 in
23:14 44.5 °F 40.9 °F 30.22 in Calm     87 % 0.00 in
23:16 44.5 °F 40.9 °F 30.22 in Calm     87 % 0.00 in
23:21 44.4 °F 40.8 °F 30.22 in Calm     87 % 0.00 in
23:22 44.4 °F 40.8 °F 30.22 in Calm     87 % 0.00 in
23:27 44.1 °F 40.5 °F 30.22 in Calm     87 % 0.00 in
23:29 44.1 °F 40.5 °F 30.22 in Calm     87 % 0.00 in
23:32 44.1 °F 40.5 °F 30.22 in Calm     87 % 0.00 in
23:34 44.1 °F 40.5 °F 30.22 in Calm     87 % 0.00 in
23:39 44.1 °F 40.5 °F 30.22 in Calm     87 % 0.00 in
23:42 44.0 °F 40.4 °F 30.22 in Calm     87 % 0.00 in
23:47 43.7 °F 40.1 °F 30.22 in Calm     87 % 0.00 in
23:52 43.3 °F 39.7 °F 30.22 in Calm     87 % 0.00 in
23:53 43.2 °F 39.6 °F 30.22 in Calm     87 % 0.00 in
23:58 43.1 °F 39.8 °F 30.22 in Calm     88 % 0.00 in
Park Place, Exeter, Tulare County, California, USA
Compliments of Weather Underground - 3.5 mb